Time;durP1;ratioP1;P1;durP2;ratioP2;P2;SDS_P1;SDS_P2;PMS_P1;PMS_P2;Temp;Humidity;BMP_temperature;BMP_pressure;BME280_temperature;BME280_humidity;BME280_pressure;Samples;Min_cycle;Max_cycle;Signal;HPM_P1;HPM_P2
2022/09/13 00:01:45;;;;;;;9.93;6.50;;;17.00;99.40;;;;;;5088487;28;20575;-70
2022/09/13 00:04:11;;;;;;;9.73;6.63;;;17.00;99.50;;;;;;5106512;28;20100;-70
2022/09/13 00:06:37;;;;;;;10.20;7.43;;;17.00;99.90;;;;;;5098821;28;20070;-70
2022/09/13 00:09:03;;;;;;;11.93;8.37;;;17.00;99.90;;;;;;5090615;28;20554;-70
2022/09/13 00:11:30;;;;;;;13.17;9.30;;;17.00;99.90;;;;;;5112963;27;20047;-70
2022/09/13 00:13:57;;;;;;;11.87;9.70;;;17.00;99.90;;;;;;5092308;28;20289;-70
2022/09/13 00:16:25;;;;;;;15.77;10.10;;;17.00;99.90;;;;;;5114160;27;20289;-70
2022/09/13 00:18:52;;;;;;;17.10;11.20;;;17.00;99.90;;;;;;5105227;28;20478;-69
2022/09/13 00:21:20;;;;;;;17.90;11.97;;;17.00;99.90;;;;;;5101862;28;20301;-69
2022/09/13 00:23:48;;;;;;;18.20;12.47;;;17.00;99.90;;;;;;5095656;28;20285;-69
2022/09/13 00:26:17;;;;;;;18.57;12.00;;;17.00;99.90;;;;;;5087858;28;20289;-69
2022/09/13 00:28:46;;;;;;;19.50;12.43;;;17.10;99.90;;;;;;5104265;28;20633;-70
2022/09/13 00:31:12;;;;;;;22.40;13.50;;;17.10;99.90;;;;;;5088802;28;20297;-70
2022/09/13 00:33:38;;;;;;;16.97;12.97;;;17.10;99.90;;;;;;5114951;28;20657;-70
2022/09/13 00:36:06;;;;;;;17.67;12.50;;;17.10;99.90;;;;;;5104487;28;20044;-70
2022/09/13 00:38:38;;;;;;;18.57;12.60;;;17.10;99.90;;;;;;5096966;28;20126;-69
2022/09/13 00:41:06;;;;;;;19.30;13.60;;;17.10;99.90;;;;;;5098038;28;20340;-69
2022/09/13 00:43:51;;;;;;;19.70;12.60;;;17.10;99.90;;;;;;5105015;28;20294;-69
2022/09/13 00:46:25;;;;;;;19.95;12.02;;;17.20;99.90;;;;;;5104673;28;20645;-69
2022/09/13 00:48:56;;;;;;;16.00;12.67;;;17.20;99.90;;;;;;5114410;28;20046;-70
2022/09/13 00:51:21;;;;;;;17.37;11.77;;;17.20;99.90;;;;;;5078497;28;20285;-69
2022/09/13 00:53:50;;;;;;;17.93;12.37;;;17.20;99.90;;;;;;5088344;28;20285;-69
2022/09/13 00:56:28;;;;;;;15.90;12.47;;;17.20;99.90;;;;;;5087229;28;20281;-69
2022/09/13 00:59:06;;;;;;;21.10;13.03;;;17.20;99.90;;;;;;5087716;28;20273;-69
2022/09/13 01:01:40;;;;;;;19.67;13.47;;;17.20;99.90;;;;;;5100231;28;20702;-69
2022/09/13 01:04:06;;;;;;;15.88;12.35;;;17.20;99.90;;;;;;5119653;28;20281;-69
2022/09/13 01:06:35;;;;;;;15.33;11.40;;;17.20;99.90;;;;;;5080089;28;20058;-69
2022/09/13 01:09:03;;;;;;;17.57;11.37;;;17.20;99.90;;;;;;5088470;28;20277;-69
2022/09/13 01:11:38;;;;;;;15.70;10.70;;;17.20;99.90;;;;;;5108720;28;20289;-69
2022/09/13 01:14:05;;;;;;;16.13;11.15;;;17.20;99.90;;;;;;5105641;28;20298;-69
2022/09/13 01:16:31;;;;;;;16.63;10.17;;;17.20;99.90;;;;;;5082558;28;20126;-69
2022/09/13 01:18:57;;;;;;;14.90;10.47;;;17.20;99.90;;;;;;5091564;28;20380;-69
2022/09/13 01:21:34;;;;;;;15.47;10.70;;;17.20;99.90;;;;;;5074789;28;20717;-69
2022/09/13 01:24:48;;;;;;;15.53;10.27;;;17.20;99.90;;;;;;5117818;27;20054;-69
2022/09/13 01:27:32;;;;;;;16.40;11.20;;;17.20;99.90;;;;;;5029872;28;21128;-69
2022/09/13 01:30:15;;;;;;;14.40;10.43;;;17.20;99.90;;;;;;5090902;28;20372;-69
2022/09/13 01:33:04;;;;;;;14.70;10.40;;;17.20;99.90;;;;;;5109070;28;20096;-69
2022/09/13 01:36:07;;;;;;;14.93;11.23;;;17.20;99.90;;;;;;5107837;27;20295;-69
2022/09/13 01:38:40;;;;;;;17.53;11.10;;;17.20;99.90;;;;;;5114261;27;20321;-69
2022/09/13 01:41:24;;;;;;;14.50;10.87;;;17.20;99.90;;;;;;5107598;28;20305;-69
2022/09/13 01:44:15;;;;;;;17.83;11.50;;;17.20;99.90;;;;;;5113871;27;20281;-69
2022/09/13 01:47:14;;;;;;;17.37;11.53;;;17.10;99.90;;;;;;5088957;27;20429;-69
2022/09/13 01:49:43;;;;;;;14.27;10.90;;;17.10;99.90;;;;;;5114382;27;20285;-69
2022/09/13 01:52:36;;;;;;;14.07;10.60;;;17.00;99.90;;;;;;5115975;27;20310;-69
2022/09/13 01:55:08;;;;;;;13.63;10.53;;;17.00;99.90;;;;;;5111378;27;20281;-69
2022/09/13 01:58:08;;;;;;;18.40;11.57;;;17.00;99.90;;;;;;5107799;28;20312;-69
2022/09/13 02:00:51;;;;;;;17.17;11.33;;;17.00;99.90;;;;;;5040480;28;20681;-69
2022/09/13 02:03:28;;;;;;;17.27;10.90;;;17.00;99.90;;;;;;5111251;27;20376;-69
2022/09/13 02:06:14;;;;;;;14.00;10.40;;;17.00;99.90;;;;;;5112635;27;20312;-69
2022/09/13 02:08:45;;;;;;;15.43;11.00;;;17.10;99.90;;;;;;5102473;28;20273;-69
2022/09/13 02:11:13;;;;;;;17.47;11.73;;;17.10;99.90;;;;;;5108171;28;20306;-69
2022/09/13 02:13:45;;;;;;;15.53;10.60;;;17.10;99.90;;;;;;5107981;28;20278;-69
2022/09/13 02:16:17;;;;;;;15.53;10.47;;;17.10;99.90;;;;;;5114411;27;20288;-69
2022/09/13 02:18:48;;;;;;;16.67;10.53;;;17.10;99.90;;;;;;5122258;27;20316;-69
2022/09/13 02:21:43;;;;;;;16.00;10.97;;;17.00;99.90;;;;;;5090134;28;20354;-69
2022/09/13 02:24:33;;;;;;;17.35;10.45;;;17.00;99.90;;;;;;5107674;27;20314;-69
2022/09/13 02:27:03;;;;;;;13.93;10.27;;;17.10;99.90;;;;;;5090966;28;20137;-69
2022/09/13 02:29:31;;;;;;;14.43;9.40;;;17.10;99.90;;;;;;5107295;28;20665;-69
2022/09/13 02:32:14;;;;;;;13.63;9.27;;;17.10;99.90;;;;;;5108032;27;20277;-69
2022/09/13 02:35:06;;;;;;;13.90;9.40;;;17.10;99.90;;;;;;5094856;28;20281;-69
2022/09/13 02:37:36;;;;;;;11.03;8.70;;;17.20;99.90;;;;;;5097983;27;20284;-69
2022/09/13 02:40:07;;;;;;;12.00;8.47;;;17.30;99.90;;;;;;5098679;28;20305;-69
2022/09/13 02:42:43;;;;;;;9.97;7.60;;;17.30;99.90;;;;;;5089662;28;20293;-69
2022/09/13 02:45:11;;;;;;;13.00;8.00;;;17.30;99.90;;;;;;5103767;27;20423;-69
2022/09/13 02:47:58;;;;;;;12.73;8.53;;;17.40;99.90;;;;;;5112369;27;20281;-69
2022/09/13 02:50:45;;;;;;;5.70;4.27;;;17.50;99.90;;;;;;5095421;28;20285;-70
2022/09/13 02:53:29;;;;;;;5.77;2.87;;;17.50;99.90;;;;;;5089723;28;20358;-70
2022/09/13 02:55:58;;;;;;;3.20;1.00;;;17.50;99.90;;;;;;5106502;28;20301;-70
2022/09/13 02:58:45;;;;;;;3.30;1.00;;;17.40;99.90;;;;;;5119621;27;20350;-70
2022/09/13 03:01:12;;;;;;;3.57;0.90;;;17.40;99.90;;;;;;5104183;27;20344;-70
2022/09/13 03:03:38;;;;;;;1.23;0.50;;;17.30;99.90;;;;;;5105095;27;20295;-70
2022/09/13 03:06:04;;;;;;;2.33;0.60;;;17.20;99.90;;;;;;5114402;27;20822;-70
2022/09/13 03:08:30;;;;;;;1.57;0.50;;;17.20;99.90;;;;;;5089599;28;20097;-70
2022/09/13 03:11:13;;;;;;;1.27;0.37;;;17.20;99.90;;;;;;5090915;27;20633;-70
2022/09/13 03:13:48;;;;;;;1.77;0.40;;;17.10;99.90;;;;;;5120417;27;20350;-70
2022/09/13 03:16:51;;;;;;;7.47;1.03;;;17.10;99.90;;;;;;5119294;27;20331;-70
2022/09/13 03:19:37;;;;;;;1.63;0.50;;;17.00;99.90;;;;;;5106164;27;20043;-70
2022/09/13 03:22:29;;;;;;;3.30;0.70;;;17.00;99.90;;;;;;5082058;28;20359;-70
2022/09/13 03:25:14;;;;;;;1.77;0.77;;;17.00;99.90;;;;;;5101289;28;20315;-70
2022/09/13 03:27:48;;;;;;;3.90;0.63;;;17.00;99.90;;;;;;5111247;27;20277;-70
2022/09/13 03:30:16;;;;;;;2.28;0.50;;;17.00;99.90;;;;;;5106624;27;20358;-69
2022/09/13 03:32:50;;;;;;;1.73;0.47;;;17.00;99.90;;;;;;5089198;28;20597;-69
2022/09/13 03:35:38;;;;;;;1.17;0.50;;;17.00;99.90;;;;;;5089167;28;20832;-69
2022/09/13 03:38:14;;;;;;;2.03;0.70;;;17.00;99.90;;;;;;5109729;27;20288;-69
2022/09/13 03:40:49;;;;;;;3.03;0.63;;;16.90;99.90;;;;;;5089007;28;20797;-69
2022/09/13 03:43:35;;;;;;;3.03;0.90;;;16.90;99.90;;;;;;5105558;28;20325;-69
2022/09/13 03:46:35;;;;;;;1.50;0.57;;;16.90;99.90;;;;;;5100418;28;20387;-69
2022/09/13 03:49:09;;;;;;;3.17;0.83;;;16.90;99.90;;;;;;5055482;28;20281;-69
2022/09/13 03:51:36;;;;;;;4.67;0.80;;;16.90;99.90;;;;;;5092973;28;20696;-69
2022/09/13 03:54:07;;;;;;;2.90;0.80;;;16.90;99.90;;;;;;5088200;28;20285;-70
2022/09/13 03:56:33;;;;;;;2.07;0.73;;;16.90;99.90;;;;;;5110046;27;20294;-69
2022/09/13 03:58:58;;;;;;;2.83;0.63;;;16.90;99.90;;;;;;5083970;28;20281;-70
2022/09/13 04:01:24;;;;;;;2.27;0.57;;;16.90;99.90;;;;;;5089396;28;20035;-69
2022/09/13 04:03:50;;;;;;;4.93;0.70;;;16.90;99.90;;;;;;5110698;27;20450;-70
2022/09/13 04:06:16;;;;;;;2.23;0.63;;;16.90;99.90;;;;;;5117630;27;20043;-69
2022/09/13 04:08:43;;;;;;;3.57;0.90;;;16.90;99.90;;;;;;5110638;27;20855;-69
2022/09/13 04:11:09;;;;;;;7.37;1.00;;;16.90;99.90;;;;;;5088337;28;20047;-69
2022/09/13 04:13:36;;;;;;;3.87;0.90;;;16.90;99.90;;;;;;5105051;28;20289;-69
2022/09/13 04:16:03;;;;;;;5.83;1.67;;;16.90;99.90;;;;;;5108784;27;20285;-69
2022/09/13 04:18:30;;;;;;;2.00;1.37;;;16.90;99.90;;;;;;5092902;28;20293;-69
2022/09/13 04:20:57;;;;;;;5.47;2.00;;;16.90;99.90;;;;;;5100965;28;20308;-68
2022/09/13 04:23:25;;;;;;;3.50;1.50;;;17.00;99.90;;;;;;5088161;28;20289;-68
2022/09/13 04:25:51;;;;;;;4.53;1.70;;;16.90;99.90;;;;;;5109551;28;20366;-68
2022/09/13 04:28:21;;;;;;;3.90;1.93;;;17.00;99.90;;;;;;5074766;28;20320;-68
2022/09/13 04:30:48;;;;;;;3.27;1.90;;;16.90;99.90;;;;;;5113657;28;20389;-68
2022/09/13 04:33:16;;;;;;;5.17;2.13;;;16.90;99.90;;;;;;5068019;28;20365;-69
2022/09/13 04:35:41;;;;;;;2.63;1.50;;;16.90;99.90;;;;;;5086349;28;20759;-68
2022/09/13 04:38:08;;;;;;;5.50;1.60;;;16.90;99.90;;;;;;5095509;28;20312;-68
2022/09/13 04:40:34;;;;;;;3.47;1.50;;;16.90;99.90;;;;;;5112170;28;20050;-69
2022/09/13 04:43:00;;;;;;;5.77;2.13;;;16.80;99.90;;;;;;5086074;28;20281;-68
2022/09/13 04:45:27;;;;;;;3.57;1.80;;;16.80;99.90;;;;;;5108229;28;20278;-68
2022/09/13 04:47:54;;;;;;;4.07;1.40;;;16.80;99.90;;;;;;5109263;28;20762;-68
2022/09/13 04:50:20;;;;;;;4.27;1.50;;;16.80;99.90;;;;;;5110188;27;20277;-68
2022/09/13 04:52:46;;;;;;;5.60;1.63;;;16.70;99.90;;;;;;5071834;28;20293;-68
2022/09/13 04:55:13;;;;;;;4.43;1.50;;;16.70;99.90;;;;;;5105608;28;20342;-68
2022/09/13 04:57:39;;;;;;;4.87;1.30;;;16.70;99.90;;;;;;5107828;28;20968;-68
2022/09/13 05:00:06;;;;;;;5.97;1.60;;;16.60;99.90;;;;;;5098212;28;20710;-68
2022/09/13 05:02:32;;;;;;;4.33;1.60;;;16.60;99.90;;;;;;5095963;28;20295;-68
2022/09/13 05:04:58;;;;;;;3.50;1.57;;;16.60;99.90;;;;;;5096491;27;20308;-68
2022/09/13 05:07:23;;;;;;;4.33;1.93;;;16.60;99.90;;;;;;5117916;27;20044;-68
2022/09/13 05:09:49;;;;;;;5.13;2.00;;;16.60;99.90;;;;;;5086829;27;20035;-68
2022/09/13 05:12:15;;;;;;;2.87;1.83;;;16.60;99.90;;;;;;5084653;28;20080;-68
2022/09/13 05:14:40;;;;;;;6.40;2.00;;;16.60;99.90;;;;;;5091519;28;20028;-69
2022/09/13 05:17:06;;;;;;;5.00;1.70;;;16.60;99.90;;;;;;5081435;28;20043;-69
2022/09/13 05:19:32;;;;;;;7.53;1.90;;;16.60;99.90;;;;;;5106350;27;20545;-68
2022/09/13 05:21:58;;;;;;;4.43;1.60;;;16.60;99.90;;;;;;5076789;28;20535;-68
2022/09/13 05:24:24;;;;;;;7.70;1.73;;;16.50;99.90;;;;;;5107934;28;20075;-68
2022/09/13 05:26:49;;;;;;;3.80;1.50;;;16.60;99.90;;;;;;5108635;28;20040;-68
2022/09/13 05:29:15;;;;;;;5.30;2.00;;;16.60;99.90;;;;;;5095833;27;20035;-68
2022/09/13 05:31:42;;;;;;;4.90;1.97;;;16.60;99.90;;;;;;5090919;28;20043;-68
2022/09/13 05:34:11;;;;;;;6.53;2.10;;;16.60;99.90;;;;;;5101322;28;20480;-68
2022/09/13 05:36:37;;;;;;;5.30;1.73;;;16.60;99.90;;;;;;5106776;28;20346;-68
2022/09/13 05:39:04;;;;;;;3.37;1.37;;;16.60;99.90;;;;;;5113437;27;20285;-68
2022/09/13 05:41:30;;;;;;;4.47;2.37;;;16.60;99.90;;;;;;5103727;28;20301;-68
2022/09/13 05:43:56;;;;;;;4.73;1.60;;;16.60;99.90;;;;;;5092850;27;20306;-68
2022/09/13 05:46:22;;;;;;;4.73;1.77;;;16.70;99.90;;;;;;5091452;28;20039;-68
2022/09/13 05:48:48;;;;;;;5.50;2.00;;;16.70;99.90;;;;;;5073811;28;20281;-68
2022/09/13 05:51:15;;;;;;;4.90;1.83;;;16.70;99.90;;;;;;5108105;28;20039;-68
2022/09/13 05:53:43;;;;;;;4.53;1.70;;;16.70;99.90;;;;;;5093799;28;20360;-68
2022/09/13 05:56:12;;;;;;;5.03;1.70;;;16.70;99.90;;;;;;5094217;28;20281;-68
2022/09/13 05:58:39;;;;;;;4.37;1.80;;;16.70;99.90;;;;;;5107911;27;20333;-68
2022/09/13 06:01:06;;;;;;;4.23;1.60;;;16.80;99.90;;;;;;5108187;28;20739;-68
2022/09/13 06:03:31;;;;;;;4.13;1.73;;;16.80;99.90;;;;;;5071263;28;20342;-68
2022/09/13 06:05:57;;;;;;;4.93;1.80;;;16.80;99.90;;;;;;5110595;27;20289;-68
2022/09/13 06:08:25;;;;;;;7.20;2.67;;;16.90;99.90;;;;;;5108188;28;20039;-68
2022/09/13 06:11:05;;;;;;;5.10;2.00;;;16.90;99.90;;;;;;5108437;27;20289;-68
2022/09/13 06:13:31;;;;;;;7.00;2.30;;;17.00;99.90;;;;;;5108858;27;20284;-68
2022/09/13 06:15:59;;;;;;;7.80;2.20;;;17.00;99.90;;;;;;5072862;28;20752;-68
2022/09/13 06:18:26;;;;;;;6.53;2.63;;;17.10;99.90;;;;;;5097032;27;20466;-68
2022/09/13 06:20:58;;;;;;;3.83;1.73;;;17.10;99.90;;;;;;5086513;28;20664;-68
2022/09/13 06:23:24;;;;;;;5.07;2.13;;;17.20;99.90;;;;;;5107846;28;20583;-68
2022/09/13 06:25:57;;;;;;;4.00;2.20;;;17.20;99.90;;;;;;5116119;27;20350;-68
2022/09/13 06:28:23;;;;;;;5.10;1.80;;;17.30;99.90;;;;;;5091020;28;20035;-68
2022/09/13 06:30:49;;;;;;;6.50;2.33;;;17.30;99.90;;;;;;5113580;27;20381;-68
2022/09/13 06:33:14;;;;;;;6.30;1.77;;;17.40;99.90;;;;;;5089328;28;20040;-68
2022/09/13 06:35:40;;;;;;;6.50;1.30;;;17.40;99.90;;;;;;5089471;28;20038;-68
2022/09/13 06:38:06;;;;;;;5.77;1.43;;;17.50;99.90;;;;;;5110123;27;20055;-68
2022/09/13 06:40:31;;;;;;;5.13;1.83;;;17.60;99.90;;;;;;5077726;28;20074;-68
2022/09/13 06:42:57;;;;;;;3.87;1.67;;;17.60;99.90;;;;;;5080244;28;20074;-68
2022/09/13 06:45:22;;;;;;;7.17;2.17;;;17.70;99.90;;;;;;5065071;28;20489;-68
2022/09/13 06:47:48;;;;;;;4.20;1.23;;;17.70;99.90;;;;;;5105342;28;20489;-68
2022/09/13 06:50:14;;;;;;;5.50;0.60;;;17.80;99.80;;;;;;5095202;28;20043;-68
2022/09/13 06:52:39;;;;;;;3.90;0.67;;;17.80;99.10;;;;;;5105412;28;20101;-68
2022/09/13 06:55:05;;;;;;;4.80;0.70;;;17.90;97.20;;;;;;5089769;28;20050;-68
2022/09/13 06:57:31;;;;;;;3.67;0.63;;;17.90;97.40;;;;;;5099088;28;20069;-68
2022/09/13 06:59:57;;;;;;;4.47;1.00;;;18.00;96.00;;;;;;5089393;28;20419;-68
2022/09/13 07:02:23;;;;;;;3.60;0.80;;;18.00;94.90;;;;;;5070837;28;20054;-68
2022/09/13 07:04:49;;;;;;;4.00;0.50;;;18.10;94.00;;;;;;5106989;27;20039;-68
2022/09/13 07:07:15;;;;;;;3.13;0.43;;;18.10;93.20;;;;;;5072485;28;20725;-69
2022/09/13 07:09:41;;;;;;;1.97;0.40;;;18.10;92.50;;;;;;5075753;27;20410;-68
2022/09/13 07:12:07;;;;;;;3.20;0.47;;;18.10;92.00;;;;;;5074535;28;20392;-69
2022/09/13 07:14:33;;;;;;;3.43;0.40;;;18.10;90.60;;;;;;5092999;27;20277;-68
2022/09/13 07:16:59;;;;;;;4.30;0.80;;;18.10;89.60;;;;;;5089117;28;20415;-68
2022/09/13 07:19:26;;;;;;;5.93;1.00;;;18.00;89.10;;;;;;5078434;28;20036;-68
2022/09/13 07:21:53;;;;;;;3.30;0.47;;;18.00;89.10;;;;;;5090266;28;20302;-68
2022/09/13 07:24:21;;;;;;;4.43;0.43;;;17.90;88.80;;;;;;5093816;28;20281;-68
2022/09/13 07:26:47;;;;;;;2.67;0.50;;;18.00;88.70;;;;;;5106021;27;20369;-68
2022/09/13 07:29:17;;;;;;;5.03;0.30;;;18.00;88.20;;;;;;5090945;28;20342;-68
2022/09/13 07:31:45;;;;;;;4.70;0.60;;;17.90;87.50;;;;;;5105805;27;20269;-68
2022/09/13 07:34:13;;;;;;;4.53;0.70;;;17.90;87.40;;;;;;5090297;28;20766;-68
2022/09/13 07:36:40;;;;;;;6.87;1.13;;;17.90;88.30;;;;;;5087827;28;20289;-69
2022/09/13 07:39:06;;;;;;;2.27;0.50;;;18.00;88.10;;;;;;5108146;27;20277;-68
2022/09/13 07:41:33;;;;;;;5.87;0.50;;;18.00;87.60;;;;;;5090597;28;20305;-68
2022/09/13 07:44:03;;;;;;;6.63;0.57;;;18.10;86.50;;;;;;5088604;28;20274;-68
2022/09/13 07:46:32;;;;;;;3.13;0.30;;;18.10;84.70;;;;;;5072374;28;20309;-68
2022/09/13 07:48:59;;;;;;;2.30;0.30;;;18.10;84.10;;;;;;5093027;28;20661;-68
2022/09/13 07:51:30;;;;;;;6.30;0.70;;;18.20;83.80;;;;;;5090650;28;20380;-69
2022/09/13 07:54:02;;;;;;;2.80;0.37;;;18.20;83.70;;;;;;5104521;28;20773;-68
2022/09/13 07:56:36;;;;;;;3.47;0.37;;;18.30;83.80;;;;;;5106495;27;20392;-68
2022/09/13 07:59:05;;;;;;;2.83;0.30;;;18.30;80.40;;;;;;5102352;28;20274;-68
2022/09/13 08:01:48;;;;;;;3.03;0.30;;;18.30;81.40;;;;;;5101233;27;20333;-68
2022/09/13 08:04:17;;;;;;;5.30;0.30;;;18.30;80.40;;;;;;5076403;28;20758;-68
2022/09/13 08:06:43;;;;;;;2.47;0.50;;;18.40;80.40;;;;;;5082814;28;20364;-68
2022/09/13 08:09:10;;;;;;;5.87;0.40;;;18.40;80.30;;;;;;5084630;28;20852;-69
2022/09/13 08:11:40;;;;;;;6.20;0.50;;;18.40;80.00;;;;;;5105945;27;20036;-69
2022/09/13 08:14:08;;;;;;;1.90;0.37;;;18.50;79.40;;;;;;5100841;28;20289;-69
2022/09/13 08:16:34;;;;;;;3.73;0.70;;;18.60;80.30;;;;;;5100838;28;20289;-68
2022/09/13 08:19:02;;;;;;;2.47;0.37;;;18.80;78.00;;;;;;5101902;28;20288;-69
2022/09/13 08:21:34;;;;;;;3.97;0.67;;;18.80;77.20;;;;;;5100425;28;20044;-68
2022/09/13 08:24:00;;;;;;;3.77;0.40;;;18.60;75.70;;;;;;5101383;28;20358;-68
2022/09/13 08:26:28;;;;;;;3.97;0.43;;;18.50;76.90;;;;;;5083559;28;20346;-68
2022/09/13 08:28:59;;;;;;;4.50;0.37;;;18.60;77.80;;;;;;5101862;28;20285;-68
2022/09/13 08:31:26;;;;;;;2.23;0.40;;;18.80;77.80;;;;;;5082841;28;20277;-69
2022/09/13 08:33:52;;;;;;;8.00;0.37;;;19.10;77.10;;;;;;5083880;28;20040;-68
2022/09/13 08:36:19;;;;;;;3.13;0.30;;;19.10;74.30;;;;;;5065378;28;20047;-69
2022/09/13 08:38:53;;;;;;;2.20;0.30;;;18.90;74.40;;;;;;5084843;28;20051;-69
2022/09/13 08:41:36;;;;;;;2.63;0.20;;;18.80;74.20;;;;;;5084154;28;20301;-69
2022/09/13 08:44:28;;;;;;;4.00;0.30;;;18.70;74.20;;;;;;5085981;28;20039;-69
2022/09/13 08:47:20;;;;;;;3.80;0.50;;;18.70;71.70;;;;;;5082738;28;20039;-69
2022/09/13 08:49:51;;;;;;;3.13;0.60;;;18.80;72.50;;;;;;5083495;28;20036;-69
2022/09/13 08:52:46;;;;;;;4.60;0.30;;;18.90;70.40;;;;;;5107043;28;20577;-69
2022/09/13 08:55:51;;;;;;;4.82;0.47;;;18.90;71.10;;;;;;5108020;28;20277;-69
2022/09/13 08:58:45;;;;;;;3.47;0.40;;;18.90;71.50;;;;;;5089276;28;20424;-69
2022/09/13 09:01:42;;;;;;;3.70;0.30;;;18.70;71.20;;;;;;5102862;28;20318;-69
2022/09/13 09:04:10;;;;;;;5.40;0.40;;;18.70;72.80;;;;;;5095462;28;20313;-69
2022/09/13 09:06:36;;;;;;;4.40;0.50;;;18.90;73.20;;;;;;5090277;28;20351;-69
2022/09/13 09:09:11;;;;;;;3.70;0.53;;;19.10;71.70;;;;;;5103838;28;20146;-69
2022/09/13 09:11:50;;;;;;;3.42;0.28;;;19.40;71.30;;;;;;5108220;28;20089;-69
2022/09/13 09:14:30;;;;;;;6.63;1.20;;;19.70;71.00;;;;;;5104731;28;20059;-69
2022/09/13 09:17:13;;;;;;;3.23;0.30;;;19.90;69.50;;;;;;5104257;28;20039;-69
2022/09/13 09:19:45;;;;;;;4.23;0.43;;;20.10;68.70;;;;;;5087548;28;20188;-69
2022/09/13 09:22:18;;;;;;;4.33;0.40;;;20.20;67.90;;;;;;5101372;28;20048;-69
2022/09/13 09:24:55;;;;;;;5.33;0.40;;;20.20;67.00;;;;;;5103767;28;20043;-69
2022/09/13 09:27:22;;;;;;;3.70;0.37;;;20.00;66.90;;;;;;5105359;28;20046;-69
2022/09/13 09:29:53;;;;;;;3.70;0.47;;;19.90;67.60;;;;;;5090601;28;20516;-69
2022/09/13 09:33:01;;;;;;;4.70;0.90;;;19.90;68.80;;;;;;5111082;27;20495;-69
2022/09/13 09:35:50;;;;;;;3.20;0.40;;;20.10;66.10;;;;;;5100698;27;20459;-69
2022/09/13 09:38:30;;;;;;;3.20;0.33;;;20.10;66.90;;;;;;5083133;28;20055;-69
2022/09/13 09:40:58;;;;;;;2.83;0.43;;;19.90;67.30;;;;;;5106866;28;20130;-69
2022/09/13 09:43:28;;;;;;;3.43;0.40;;;19.70;68.50;;;;;;5087582;28;20035;-69
2022/09/13 09:45:57;;;;;;;1.27;0.20;;;19.60;67.90;;;;;;5088788;28;20613;-69
2022/09/13 09:48:29;;;;;;;2.57;0.30;;;19.60;68.20;;;;;;5095751;27;20065;-69
2022/09/13 09:50:59;;;;;;;4.40;0.30;;;19.60;68.00;;;;;;5102747;27;20365;-69
2022/09/13 09:53:40;;;;;;;4.43;0.60;;;19.70;68.50;;;;;;5089840;28;20105;-69
2022/09/13 09:56:18;;;;;;;5.30;0.50;;;19.90;67.90;;;;;;5107121;27;20050;-69
2022/09/13 09:58:45;;;;;;;3.00;0.40;;;20.20;67.60;;;;;;5106892;27;20032;-69
2022/09/13 10:01:31;;;;;;;3.10;0.37;;;20.30;66.10;;;;;;5106030;27;20043;-69
2022/09/13 10:04:09;;;;;;;;;;;20.20;63.60;;;;;;5091725;28;20531;-68
2022/09/13 10:06:37;;;;;;;3.33;0.67;;;20.00;64.00;;;;;;5087753;28;19919;-69
2022/09/13 10:09:08;;;;;;;4.27;0.40;;;19.70;64.90;;;;;;5109136;27;20051;-69
2022/09/13 10:11:53;;;;;;;4.50;0.40;;;19.70;65.90;;;;;;5090729;28;20062;-69
2022/09/13 10:14:28;;;;;;;2.67;0.20;;;19.90;64.60;;;;;;5051802;27;20051;-68
2022/09/13 10:17:14;;;;;;;1.83;0.20;;;20.10;62.90;;;;;;5109859;27;20113;-69
2022/09/13 10:19:50;;;;;;;2.43;0.30;;;20.30;63.10;;;;;;5108253;27;20035;-69
2022/09/13 10:22:15;;;;;;;4.13;0.40;;;20.50;62.30;;;;;;5083494;28;20142;-69
2022/09/13 10:24:41;;;;;;;2.97;0.43;;;20.70;63.40;;;;;;5077110;28;20169;-69
2022/09/13 10:27:41;;;;;;;3.03;0.40;;;20.80;63.40;;;;;;5104882;28;20051;-69
2022/09/13 10:30:27;;;;;;;2.53;0.30;;;20.80;61.20;;;;;;5033402;28;20043;-69
2022/09/13 10:32:57;;;;;;;3.27;0.20;;;20.60;62.80;;;;;;5110083;27;20044;-68
2022/09/13 10:35:23;;;;;;;3.53;0.50;;;20.60;62.10;;;;;;5089499;28;20043;-68
2022/09/13 10:37:50;;;;;;;3.87;0.40;;;20.70;62.10;;;;;;5107241;28;20122;-68
2022/09/13 10:40:27;;;;;;;5.37;0.50;;;20.90;61.70;;;;;;5092494;27;20036;-69
2022/09/13 10:42:57;;;;;;;3.03;0.60;;;21.10;62.10;;;;;;5080936;28;20047;-69
2022/09/13 10:45:26;;;;;;;6.37;0.57;;;21.30;61.70;;;;;;5112308;27;20039;-69
2022/09/13 10:48:04;;;;;;;7.13;0.40;;;21.50;61.30;;;;;;5107611;28;20058;-69
2022/09/13 10:50:30;;;;;;;3.33;0.30;;;21.60;61.00;;;;;;5110290;27;20150;-68
2022/09/13 10:52:58;;;;;;;2.80;0.70;;;21.60;60.70;;;;;;5107258;28;20571;-68
2022/09/13 10:55:37;;;;;;;3.83;0.53;;;21.40;61.20;;;;;;5109475;27;20495;-68
2022/09/13 10:58:06;;;;;;;5.33;0.40;;;21.10;61.50;;;;;;5106604;28;20079;-68
2022/09/13 11:01:00;;;;;;;1.87;0.30;;;20.90;61.90;;;;;;5090046;28;20400;-68
2022/09/13 11:03:49;;;;;;;2.30;0.40;;;21.00;60.10;;;;;;5107111;28;20075;-68
2022/09/13 11:06:30;;;;;;;4.20;0.30;;;21.00;59.40;;;;;;5113283;27;20099;-68
2022/09/13 11:09:17;;;;;;;4.63;0.50;;;20.90;57.50;;;;;;5080520;28;20071;-68
2022/09/13 11:11:56;;;;;;;1.33;0.20;;;20.70;57.80;;;;;;5107893;27;20472;-68
2022/09/13 11:14:55;;;;;;;3.73;0.30;;;20.80;58.60;;;;;;5106568;28;20051;-68
2022/09/13 11:17:43;;;;;;;2.50;0.20;;;20.90;58.20;;;;;;5107772;27;20140;-69
2022/09/13 11:20:47;;;;;;;3.27;0.30;;;21.00;57.80;;;;;;5106292;28;20051;-68
2022/09/13 11:23:18;;;;;;;2.40;0.40;;;21.10;57.80;;;;;;5089251;28;20051;-68
2022/09/13 11:26:05;;;;;;;1.00;0.20;;;21.10;58.80;;;;;;5085929;27;20484;-68
2022/09/13 11:28:40;;;;;;;4.83;0.57;;;21.20;57.30;;;;;;5082651;28;20050;-68
2022/09/13 11:31:30;;;;;;;6.57;0.77;;;21.10;57.70;;;;;;5105892;28;20067;-68
2022/09/13 11:34:10;;;;;;;3.47;0.80;;;20.90;57.20;;;;;;5092510;27;20432;-68
2022/09/13 11:37:07;;;;;;;3.13;0.47;;;20.90;57.20;;;;;;5105415;28;20206;-68
2022/09/13 11:39:56;;;;;;;3.20;0.40;;;21.00;57.50;;;;;;5096090;28;20866;-68
2022/09/13 11:42:33;;;;;;;6.63;0.40;;;21.00;56.60;;;;;;5060572;27;20051;-68
2022/09/13 11:45:26;;;;;;;3.60;0.40;;;21.00;58.10;;;;;;5088661;28;20042;-68
2022/09/13 11:48:10;;;;;;;6.00;0.60;;;21.00;58.80;;;;;;5097720;28;20040;-68
2022/09/13 11:51:01;;;;;;;5.20;0.43;;;20.90;60.20;;;;;;5103232;28;20088;-68
2022/09/13 11:53:32;;;;;;;2.73;0.70;;;21.00;60.30;;;;;;5091566;28;20043;-68
2022/09/13 11:56:08;;;;;;;5.47;0.47;;;21.00;60.90;;;;;;5101375;28;20115;-68
2022/09/13 11:58:45;;;;;;;4.73;0.53;;;21.10;60.70;;;;;;5092454;28;20137;-68
2022/09/13 12:01:16;;;;;;;4.93;0.40;;;21.20;60.80;;;;;;5109506;27;20266;-68
2022/09/13 12:03:47;;;;;;;4.70;0.90;;;21.30;60.60;;;;;;5087442;28;20043;-68
2022/09/13 12:06:29;;;;;;;5.07;0.57;;;21.40;60.50;;;;;;5111389;27;20047;-68
2022/09/13 12:09:00;;;;;;;6.83;1.00;;;21.50;60.60;;;;;;5108084;27;20074;-68
2022/09/13 12:11:34;;;;;;;4.00;0.37;;;21.50;59.50;;;;;;5107998;27;20057;-68
2022/09/13 12:14:04;;;;;;;6.67;0.70;;;21.50;59.20;;;;;;5105600;28;20567;-68
2022/09/13 12:16:49;;;;;;;3.43;0.50;;;21.50;58.90;;;;;;5087139;28;20089;-68
2022/09/13 12:19:24;;;;;;;2.63;0.35;;;21.50;56.60;;;;;;5102733;28;20063;-68
2022/09/13 12:21:56;;;;;;;6.13;0.97;;;21.30;58.50;;;;;;5103679;28;20104;-68
2022/09/13 12:24:51;;;;;;;4.27;0.50;;;21.40;58.70;;;;;;5091085;28;20042;-68
2022/09/13 12:27:38;;;;;;;4.50;0.73;;;21.40;58.30;;;;;;5108818;28;20499;-68
2022/09/13 12:30:22;;;;;;;5.37;0.63;;;21.40;58.50;;;;;;5109304;28;20411;-68
2022/09/13 12:32:49;;;;;;;5.30;0.70;;;21.30;58.00;;;;;;5102601;28;20039;-68
2022/09/13 12:35:23;;;;;;;3.17;0.50;;;21.20;58.30;;;;;;5103954;28;20273;-68
2022/09/13 12:38:09;;;;;;;5.57;0.50;;;21.20;58.40;;;;;;5105049;28;20034;-68
2022/09/13 12:40:53;;;;;;;6.63;1.07;;;21.20;58.60;;;;;;5088104;28;20078;-68
2022/09/13 12:43:44;;;;;;;5.10;0.82;;;21.30;58.50;;;;;;5084905;28;20148;-68
2022/09/13 12:46:14;;;;;;;5.37;0.87;;;21.40;57.10;;;;;;5075395;28;20044;-68
2022/09/13 12:48:43;;;;;;;5.10;0.80;;;21.40;57.80;;;;;;5105970;28;20165;-68
2022/09/13 12:51:22;;;;;;;4.87;0.80;;;21.50;57.00;;;;;;5105172;28;20047;-68
2022/09/13 12:54:02;;;;;;;4.97;0.53;;;21.70;56.80;;;;;;5105277;28;20039;-68
2022/09/13 12:56:39;;;;;;;3.70;0.50;;;21.80;56.30;;;;;;5087923;28;20044;-68
2022/09/13 12:59:40;;;;;;;5.50;0.40;;;21.80;56.10;;;;;;5104452;28;20449;-68
2022/09/13 13:02:24;;;;;;;5.00;0.50;;;21.70;55.70;;;;;;5054653;28;20100;-68
2022/09/13 13:04:54;;;;;;;5.67;0.63;;;21.70;55.40;;;;;;5092134;28;20090;-68
2022/09/13 13:07:22;;;;;;;4.53;0.30;;;21.60;56.30;;;;;;5113766;27;20346;-68
2022/09/13 13:09:53;;;;;;;6.13;0.50;;;21.30;56.70;;;;;;5113653;27;20463;-68
2022/09/13 13:12:34;;;;;;;5.63;0.70;;;21.30;57.10;;;;;;5092035;28;20066;-68
2022/09/13 13:15:26;;;;;;;6.17;0.70;;;21.20;56.90;;;;;;5102055;28;20134;-68
2022/09/13 13:17:53;;;;;;;6.30;0.97;;;21.20;56.00;;;;;;5078328;28;20040;-68